createdAt,value
2023-09-04T00:02:42.372Z,12.80
2023-09-04T00:07:42.318Z,12.71
2023-09-04T00:12:42.286Z,12.51
2023-09-04T00:17:42.251Z,12.43
2023-09-04T00:22:42.187Z,12.41
2023-09-04T00:27:42.153Z,12.38
2023-09-04T00:32:42.143Z,12.38
2023-09-04T00:37:42.085Z,12.41
2023-09-04T00:42:42.032Z,12.40
2023-09-04T00:47:42.045Z,12.43
2023-09-04T00:52:41.958Z,12.43
2023-09-04T00:57:41.917Z,12.34
2023-09-04T01:02:41.944Z,12.34
2023-09-04T01:07:41.844Z,12.34
2023-09-04T01:12:41.833Z,12.37
2023-09-04T01:17:41.868Z,12.29
2023-09-04T01:22:41.758Z,12.30
2023-09-04T01:27:41.756Z,12.36
2023-09-04T01:32:41.760Z,12.22
2023-09-04T01:37:41.705Z,12.07
2023-09-04T01:42:41.684Z,11.98
2023-09-04T01:47:41.746Z,11.96
2023-09-04T01:52:41.633Z,11.94
2023-09-04T01:57:41.614Z,11.96
2023-09-04T02:02:41.611Z,11.96
2023-09-04T02:07:41.585Z,11.90
2023-09-04T02:12:41.557Z,11.88
2023-09-04T02:17:41.564Z,11.77
2023-09-04T02:22:41.524Z,11.81
2023-09-04T02:27:41.486Z,11.96
2023-09-04T02:32:41.510Z,12.07
2023-09-04T02:37:41.429Z,12.08
2023-09-04T02:42:41.412Z,12.00
2023-09-04T02:47:41.387Z,11.93
2023-09-04T02:52:41.346Z,12.03
2023-09-04T02:57:41.317Z,12.12
2023-09-04T03:02:41.387Z,12.07
2023-09-04T03:07:41.272Z,12.05
2023-09-04T03:12:41.247Z,12.07
2023-09-04T03:17:41.245Z,11.88
2023-09-04T03:22:41.201Z,11.85
2023-09-04T03:27:41.184Z,11.78
2023-09-04T03:32:41.151Z,11.74
2023-09-04T03:37:41.119Z,11.78
2023-09-04T03:42:41.085Z,11.60
2023-09-04T03:47:41.089Z,11.53
2023-09-04T03:52:41.006Z,11.57
2023-09-04T03:57:40.969Z,11.67
2023-09-04T04:02:40.958Z,11.70
2023-09-04T04:07:40.889Z,11.74
2023-09-04T04:12:40.875Z,11.63
2023-09-04T04:17:40.874Z,11.57
2023-09-04T04:22:40.781Z,11.48
2023-09-04T04:27:40.798Z,11.42
2023-09-04T04:32:40.830Z,11.36
2023-09-04T04:37:40.723Z,11.27
2023-09-04T04:42:40.673Z,11.23
2023-09-04T04:47:40.709Z,11.23
2023-09-04T04:52:40.651Z,11.30
2023-09-04T04:57:40.614Z,11.31
2023-09-04T05:02:40.627Z,11.38
2023-09-04T05:07:40.539Z,11.48
2023-09-04T05:12:40.495Z,11.53
2023-09-04T05:17:40.449Z,11.66
2023-09-04T05:22:40.429Z,11.81
2023-09-04T05:27:40.390Z,12.01
2023-09-04T05:32:40.352Z,12.19
2023-09-04T05:37:40.326Z,12.38
2023-09-04T05:42:40.329Z,12.58
2023-09-04T05:47:40.326Z,12.81
2023-09-04T05:52:40.306Z,13.04
2023-09-04T05:57:40.215Z,13.24
2023-09-04T06:02:40.199Z,13.43
2023-09-04T06:07:40.169Z,13.51
2023-09-04T06:12:40.083Z,13.63
2023-09-04T06:17:40.088Z,13.76
2023-09-04T06:22:40.055Z,13.86
2023-09-04T06:27:40.019Z,13.96
2023-09-04T06:32:41.762Z,14.09
2023-09-04T06:37:39.983Z,14.29
2023-09-04T06:48:39.992Z,14.45
2023-09-04T06:48:47.831Z,14.78
2023-09-04T06:53:51.418Z,15.07
2023-09-04T07:04:48.365Z,15.41
2023-09-04T07:04:53.566Z,15.93
2023-09-04T07:09:53.517Z,16.92
2023-09-04T07:14:53.471Z,17.27
2023-09-04T07:19:56.109Z,17.32
2023-09-04T07:24:53.480Z,17.54
2023-09-04T07:29:53.421Z,17.70
2023-09-04T07:34:53.379Z,18.01
2023-09-04T07:39:55.246Z,19.02
2023-09-04T07:44:55.253Z,19.60
2023-09-04T07:49:53.285Z,20.27
2023-09-04T07:54:57.739Z,24.48
2023-09-04T07:59:53.222Z,27.45
2023-09-04T08:04:54.754Z,28.58
2023-09-04T08:09:53.146Z,29.23
2023-09-04T08:15:02.578Z,29.51
2023-09-04T08:19:54.795Z,29.86
2023-09-04T08:24:55.477Z,28.28
2023-09-04T08:29:55.366Z,29.69
2023-09-04T08:34:54.880Z,30.42
2023-09-04T08:39:54.802Z,30.25
2023-09-04T08:44:52.968Z,30.98
2023-09-04T08:49:54.770Z,30.88
2023-09-04T08:54:55.896Z,31.12
2023-09-04T08:59:52.868Z,30.93
2023-09-04T09:04:54.685Z,31.01
2023-09-04T09:09:52.840Z,30.72
2023-09-04T09:14:52.809Z,30.98
2023-09-04T09:19:52.773Z,31.79
2023-09-04T09:24:54.909Z,32.03
2023-09-04T09:29:55.427Z,32.07
2023-09-04T09:34:52.628Z,31.87
2023-09-04T09:39:52.622Z,32.16
2023-09-04T09:44:52.565Z,32.40
2023-09-04T09:49:52.541Z,32.43
2023-09-04T09:54:52.481Z,30.90
2023-09-04T09:59:52.482Z,31.34
2023-09-04T10:04:52.447Z,31.57
2023-09-04T10:09:52.407Z,30.03
2023-09-04T10:14:52.361Z,30.36
2023-09-04T10:19:52.321Z,31.62
2023-09-04T10:24:52.275Z,30.96
2023-09-04T10:29:52.282Z,31.71
2023-09-04T10:34:52.255Z,31.52
2023-09-04T10:39:55.650Z,32.44
2023-09-04T10:44:52.191Z,32.03
2023-09-04T10:49:52.129Z,31.28
2023-09-04T10:54:52.142Z,32.19
2023-09-04T10:59:52.087Z,32.29
2023-09-04T11:04:52.014Z,32.27
2023-09-04T11:09:52.078Z,32.91
2023-09-04T11:14:51.944Z,33.66
2023-09-04T11:19:51.947Z,30.18
2023-09-04T11:24:51.907Z,31.95
2023-09-04T11:29:51.941Z,32.88
2023-09-04T11:34:52.033Z,32.47
2023-09-04T11:39:51.865Z,30.08
2023-09-04T11:44:51.846Z,31.88
2023-09-04T11:49:52.526Z,32.76
2023-09-04T11:54:51.830Z,33.21
2023-09-04T11:59:52.493Z,31.40
2023-09-04T12:04:51.746Z,32.99
2023-09-04T12:09:56.506Z,31.56
2023-09-04T12:22:53.632Z,32.58
2023-09-04T12:22:58.864Z,31.62
2023-09-04T12:36:02.112Z,30.66
2023-09-04T12:36:09.982Z,30.96
2023-09-04T12:41:09.932Z,31.97
2023-09-04T12:46:09.936Z,31.22
2023-09-04T12:51:24.472Z,33.00
2023-09-04T12:56:09.868Z,29.62
2023-09-04T13:01:09.849Z,26.81
2023-09-04T13:06:12.552Z,26.27
2023-09-04T13:11:10.405Z,26.39
2023-09-04T13:16:09.869Z,26.28
2023-09-04T13:21:09.715Z,26.61
2023-09-04T13:26:09.714Z,26.28
2023-09-04T13:31:12.926Z,26.21
2023-09-04T13:36:09.603Z,26.69
2023-09-04T13:41:25.820Z,26.03
2023-09-04T13:46:11.298Z,26.03
2023-09-04T13:51:09.534Z,26.32
2023-09-04T13:57:06.515Z,26.29
2023-09-04T14:01:09.552Z,25.85
2023-09-04T14:06:09.463Z,26.21
2023-09-04T14:11:09.416Z,25.94
2023-09-04T14:16:09.453Z,25.86
2023-09-04T14:21:09.375Z,25.90
2023-09-04T14:26:09.326Z,25.82
2023-09-04T14:31:09.419Z,25.60
2023-09-04T14:36:09.268Z,25.51
2023-09-04T14:41:09.254Z,25.57
2023-09-04T14:46:10.718Z,25.56
2023-09-04T14:51:09.188Z,25.48
2023-09-04T14:56:09.181Z,25.39
2023-09-04T15:01:09.190Z,25.45
2023-09-04T15:06:09.147Z,25.46
2023-09-04T15:11:14.666Z,25.36
2023-09-04T15:16:09.109Z,25.34
2023-09-04T15:21:09.022Z,25.46
2023-09-04T15:26:09.002Z,25.35
2023-09-04T15:31:09.028Z,25.45
2023-09-04T15:36:09.025Z,25.39
2023-09-04T15:41:08.964Z,25.29
2023-09-04T15:46:09.050Z,25.23
2023-09-04T15:51:08.878Z,25.27
2023-09-04T15:56:08.823Z,25.23
2023-09-04T16:01:08.840Z,25.44
2023-09-04T16:06:08.765Z,25.44
2023-09-04T16:11:08.749Z,25.22
2023-09-04T16:16:08.744Z,25.22
2023-09-04T16:21:08.717Z,25.09
2023-09-04T16:26:08.693Z,25.05
2023-09-04T16:31:08.701Z,25.04
2023-09-04T16:36:08.668Z,25.02
2023-09-04T16:41:08.642Z,24.87
2023-09-04T16:46:08.681Z,24.84
2023-09-04T16:51:08.583Z,24.82
2023-09-04T16:56:08.562Z,24.66
2023-09-04T17:01:08.580Z,24.55
2023-09-04T17:06:08.538Z,24.33
2023-09-04T17:11:08.516Z,24.11
2023-09-04T17:16:08.567Z,23.74
2023-09-04T17:21:08.467Z,23.34
2023-09-04T17:26:08.449Z,22.91
2023-09-04T17:31:08.469Z,22.60
2023-09-04T17:36:08.551Z,22.61
2023-09-04T17:41:08.413Z,22.54
2023-09-04T17:46:08.430Z,22.19
2023-09-04T17:51:08.338Z,21.77
2023-09-04T17:56:08.321Z,21.45
2023-09-04T18:01:08.309Z,21.03
2023-09-04T18:06:08.284Z,20.57
2023-09-04T18:11:08.264Z,20.31
2023-09-04T18:16:08.289Z,20.07
2023-09-04T18:21:08.201Z,19.86
2023-09-04T18:26:08.178Z,19.58
2023-09-04T18:31:08.187Z,19.28
2023-09-04T18:36:08.135Z,19.07
2023-09-04T18:41:08.116Z,18.89
2023-09-04T18:46:08.106Z,18.75
2023-09-04T18:51:08.071Z,18.54
2023-09-04T18:56:08.005Z,18.47
2023-09-04T19:01:08.055Z,18.29
2023-09-04T19:06:07.977Z,18.17
2023-09-04T19:11:07.929Z,18.02
2023-09-04T19:16:07.942Z,17.89
2023-09-04T19:21:07.860Z,17.92
2023-09-04T19:26:07.823Z,17.74
2023-09-04T19:31:07.808Z,17.57
2023-09-04T19:36:07.787Z,17.46
2023-09-04T19:41:07.734Z,17.35
2023-09-04T19:46:07.768Z,17.27
2023-09-04T19:51:07.692Z,17.14
2023-09-04T19:56:07.649Z,17.02
2023-09-04T20:01:07.636Z,16.91
2023-09-04T20:06:07.586Z,16.81
2023-09-04T20:11:07.550Z,16.73
2023-09-04T20:16:07.584Z,16.67
2023-09-04T20:21:07.510Z,16.63
2023-09-04T20:26:07.488Z,16.54
2023-09-04T20:31:07.515Z,16.52
2023-09-04T20:36:07.476Z,16.45
2023-09-04T20:41:07.396Z,16.34
2023-09-04T20:46:07.358Z,16.32
2023-09-04T20:51:07.302Z,16.23
2023-09-04T20:56:07.261Z,16.17
2023-09-04T21:01:07.311Z,16.08
2023-09-04T21:06:07.221Z,16.03
2023-09-04T21:11:07.190Z,15.95
2023-09-04T21:16:07.147Z,15.85
2023-09-04T21:21:07.155Z,15.78
2023-09-04T21:26:07.081Z,15.77
2023-09-04T21:31:07.127Z,15.70
2023-09-04T21:36:07.028Z,15.59
2023-09-04T21:41:07.025Z,15.58
2023-09-04T21:46:07.020Z,15.53
2023-09-04T21:51:06.955Z,15.49
2023-09-04T21:56:06.887Z,15.30
2023-09-04T22:01:06.926Z,15.25
2023-09-04T22:06:06.829Z,15.28
2023-09-04T22:11:06.784Z,15.19
2023-09-04T22:16:06.819Z,15.13
2023-09-04T22:21:06.693Z,15.05
2023-09-04T22:26:06.648Z,15.04
2023-09-04T22:31:06.610Z,15.01
2023-09-04T22:36:06.543Z,14.95
2023-09-04T22:41:06.545Z,14.90
2023-09-04T22:46:06.491Z,14.87
2023-09-04T22:51:06.490Z,14.80
2023-09-04T22:56:06.458Z,14.78
2023-09-04T23:01:06.532Z,14.72
2023-09-04T23:06:06.364Z,14.66
2023-09-04T23:11:06.351Z,14.60
2023-09-04T23:16:06.311Z,14.57
2023-09-04T23:21:06.311Z,14.49
2023-09-04T23:26:06.248Z,14.49
2023-09-04T23:31:06.259Z,14.52
2023-09-04T23:36:06.479Z,14.52
2023-09-04T23:41:06.198Z,14.52
2023-09-04T23:46:06.195Z,14.44
2023-09-04T23:51:06.181Z,14.46
2023-09-04T23:56:06.156Z,14.46
